Time;durP1;ratioP1;P1;durP2;ratioP2;P2;SDS_P1;SDS_P2;PMS_P1;PMS_P2;Temp;Humidity;BMP_temperature;BMP_pressure;BME280_temperature;BME280_humidity;BME280_pressure;Samples;Min_cycle;Max_cycle;Signal;HPM_P1;HPM_P2
2022/08/24 00:01:20;;;;;;;34.53;30.13;;;20.50;99.90;;;;;;5130140;27;20039;-66
2022/08/24 00:03:48;;;;;;;41.97;33.95;;;20.50;99.90;;;;;;5124545;27;20047;-67
2022/08/24 00:06:15;;;;;;;;;;;20.40;99.90;;;;;;5126445;27;20287;-65
2022/08/24 00:08:45;;;;;;;40.30;31.10;;;20.40;99.90;;;;;;5144833;27;19971;-67
2022/08/24 00:11:11;;;;;;;42.65;30.85;;;20.30;99.90;;;;;;5119611;27;20127;-66
2022/08/24 00:13:37;;;;;;;36.55;31.40;;;20.30;99.90;;;;;;5117645;27;20165;-66
2022/08/24 00:16:05;;;;;;;34.17;29.70;;;20.30;99.90;;;;;;5122093;27;20035;-67
2022/08/24 00:18:31;;;;;;;38.70;30.48;;;20.30;99.90;;;;;;5107574;27;20035;-66
2022/08/24 00:20:57;;;;;;;40.15;32.05;;;20.30;99.90;;;;;;5121047;27;20044;-66
2022/08/24 00:23:23;;;;;;;38.47;30.17;;;20.20;99.90;;;;;;5112251;27;20041;-67
2022/08/24 00:25:50;;;;;;;46.47;35.65;;;20.20;99.90;;;;;;5109486;27;20034;-66
2022/08/24 00:28:16;;;;;;;38.77;33.10;;;20.20;99.90;;;;;;5119358;27;20048;-68
2022/08/24 00:30:45;;;;;;;43.20;31.10;;;20.10;99.90;;;;;;5117358;27;20041;-67
2022/08/24 00:33:11;;;;;;;42.85;31.70;;;20.20;99.90;;;;;;5113836;27;20471;-66
2022/08/24 00:35:36;;;;;;;42.33;30.73;;;20.30;99.90;;;;;;5118882;27;20067;-66
2022/08/24 00:38:02;;;;;;;35.28;30.48;;;20.30;99.90;;;;;;5129566;27;20104;-67
2022/08/24 00:40:34;;;;;;;40.60;30.65;;;20.30;99.90;;;;;;5134191;27;20405;-66
2022/08/24 00:43:03;;;;;;;38.42;32.20;;;20.20;99.90;;;;;;5118443;27;20056;-67
2022/08/24 00:45:36;;;;;;;40.30;29.63;;;20.20;99.90;;;;;;5120605;27;20155;-65
2022/08/24 00:48:06;;;;;;;38.45;29.90;;;20.20;99.90;;;;;;5095576;27;20039;-67
2022/08/24 00:50:52;;;;;;;34.50;28.95;;;20.10;99.90;;;;;;5111300;27;20043;-67
2022/08/24 00:53:32;;;;;;;36.10;28.65;;;20.10;99.90;;;;;;5119348;27;20043;-66
2022/08/24 00:56:03;;;;;;;29.90;25.27;;;20.00;99.90;;;;;;5125094;27;20051;-66
2022/08/24 00:58:35;;;;;;;36.42;26.48;;;20.00;99.90;;;;;;5115061;27;20421;-66
2022/08/24 01:01:05;;;;;;;31.10;26.05;;;20.00;99.90;;;;;;5115014;27;20393;-66
2022/08/24 01:03:31;;;;;;;32.63;27.25;;;20.00;99.90;;;;;;5111038;27;20036;-65
2022/08/24 01:05:57;;;;;;;38.35;27.98;;;19.90;99.90;;;;;;5114005;27;20050;-66
2022/08/24 01:08:24;;;;;;;32.95;27.67;;;19.90;99.90;;;;;;5114915;27;20055;-66
2022/08/24 01:10:55;;;;;;;30.25;25.83;;;19.90;99.90;;;;;;5113857;27;20044;-66
2022/08/24 01:13:23;;;;;;;37.83;27.45;;;19.50;99.90;;;;;;5125031;27;20040;-66
2022/08/24 01:15:51;;;;;;;31.00;25.30;;;19.80;99.90;;;;;;5127728;27;20109;-66
2022/08/24 01:19:06;;;;;;;31.48;24.92;;;19.80;99.90;;;;;;5115491;27;20121;-66
2022/08/24 01:21:18;;;;;;;43.15;28.30;;;19.80;99.90;;;;;;5109567;27;20047;-67
2022/08/24 01:23:46;;;;;;;33.27;25.87;;;19.70;99.90;;;;;;5127825;27;20040;-67
2022/08/24 01:26:18;;;;;;;26.08;22.80;;;19.70;99.90;;;;;;5113347;27;20144;-67
2022/08/24 01:28:47;;;;;;;27.90;24.17;;;19.70;99.90;;;;;;5130256;27;20035;-66
2022/08/24 01:31:15;;;;;;;30.40;24.17;;;19.70;99.90;;;;;;5122789;27;20039;-67
2022/08/24 01:33:41;;;;;;;28.45;23.67;;;19.70;99.90;;;;;;5120156;27;20097;-66
2022/08/24 01:36:30;;;;;;;26.17;23.17;;;19.70;99.90;;;;;;5116367;27;20047;-66
2022/08/24 01:39:01;;;;;;;28.65;25.13;;;19.70;99.90;;;;;;5103273;28;20549;-66
2022/08/24 01:41:29;;;;;;;32.13;24.52;;;19.60;99.90;;;;;;5119203;27;20496;-66
2022/08/24 01:43:56;;;;;;;32.75;25.23;;;19.60;99.90;;;;;;5119833;27;20111;-66
2022/08/24 01:46:22;;;;;;;33.75;26.90;;;19.60;99.90;;;;;;5124084;27;20386;-67
2022/08/24 01:48:48;;;;;;;27.45;23.33;;;19.60;99.90;;;;;;5114195;27;20040;-67
2022/08/24 01:51:14;;;;;;;29.50;24.55;;;19.60;99.90;;;;;;5107085;28;20042;-65
2022/08/24 01:53:40;;;;;;;31.75;25.70;;;19.50;99.90;;;;;;5126764;27;20036;-66
2022/08/24 01:56:06;;;;;;;36.53;27.08;;;19.50;99.90;;;;;;5098817;27;20036;-67
2022/08/24 01:58:31;;;;;;;34.90;27.02;;;19.50;99.90;;;;;;5138255;27;20035;-67
2022/08/24 02:00:58;;;;;;;29.90;25.83;;;19.40;99.90;;;;;;5119897;28;20491;-67
2022/08/24 02:03:26;;;;;;;31.45;25.65;;;19.50;99.90;;;;;;5125996;27;20092;-67
2022/08/24 02:05:52;;;;;;;33.20;26.55;;;19.50;99.90;;;;;;5129840;27;20080;-67
2022/08/24 02:08:18;;;;;;;34.90;26.92;;;19.40;99.90;;;;;;5126659;27;20048;-65
2022/08/24 02:10:43;;;;;;;34.15;26.20;;;19.40;99.90;;;;;;5127528;27;20038;-67
2022/08/24 02:13:09;;;;;;;36.72;27.63;;;19.40;99.90;;;;;;5118612;27;20557;-67
2022/08/24 02:15:38;;;;;;;37.35;27.05;;;19.30;99.90;;;;;;5123355;27;20036;-67
2022/08/24 02:18:05;;;;;;;37.10;27.65;;;19.30;99.90;;;;;;5119630;27;20410;-66
2022/08/24 02:20:32;;;;;;;31.92;26.05;;;19.30;99.90;;;;;;5135364;27;20094;-66
2022/08/24 02:22:58;;;;;;;28.48;22.60;;;19.30;99.90;;;;;;5132294;27;20114;-67
2022/08/24 02:25:25;;;;;;;31.33;24.20;;;19.30;99.90;;;;;;5125970;27;20517;-66
2022/08/24 02:27:50;;;;;;;32.20;23.98;;;19.20;99.90;;;;;;5141743;27;20383;-67
2022/08/24 02:30:17;;;;;;;31.05;25.55;;;19.20;99.90;;;;;;5128246;27;20047;-67
2022/08/24 02:32:43;;;;;;;28.25;24.15;;;19.30;99.90;;;;;;5146882;27;20054;-66
2022/08/24 02:35:09;;;;;;;35.53;24.63;;;19.20;99.90;;;;;;5125102;27;20068;-68
2022/08/24 02:37:36;;;;;;;32.08;26.35;;;19.20;99.90;;;;;;5141523;27;20486;-66
2022/08/24 02:40:03;;;;;;;30.48;23.83;;;19.20;99.90;;;;;;5142101;27;20078;-67
2022/08/24 02:42:29;;;;;;;31.63;25.33;;;19.20;99.90;;;;;;5122219;27;20390;-67
2022/08/24 02:44:54;;;;;;;35.40;25.25;;;19.10;99.90;;;;;;5115365;27;20495;-66
2022/08/24 02:47:20;;;;;;;29.23;25.33;;;19.10;99.90;;;;;;5134276;27;20047;-67
2022/08/24 02:49:47;;;;;;;30.63;25.85;;;19.10;99.90;;;;;;5135844;27;20043;-66
2022/08/24 02:52:16;;;;;;;37.00;27.90;;;19.10;99.90;;;;;;5131207;27;20138;-67
2022/08/24 02:54:42;;;;;;;29.10;26.00;;;19.00;99.90;;;;;;5126926;27;20122;-66
2022/08/24 02:57:10;;;;;;;34.33;27.23;;;19.00;99.90;;;;;;5115422;27;20134;-67
2022/08/24 02:59:36;;;;;;;33.15;26.15;;;19.00;99.90;;;;;;5112894;27;20048;-67
2022/08/24 03:02:02;;;;;;;32.45;27.83;;;19.00;99.90;;;;;;5128561;27;20450;-67
2022/08/24 03:04:28;;;;;;;33.38;25.90;;;19.00;99.90;;;;;;5125169;27;20455;-66
2022/08/24 03:06:54;;;;;;;38.30;28.45;;;19.00;99.90;;;;;;5133877;27;20067;-65
2022/08/24 03:09:20;;;;;;;34.90;25.70;;;18.90;99.90;;;;;;5121739;27;20078;-66
2022/08/24 03:11:45;;;;;;;29.48;24.77;;;18.90;99.90;;;;;;5129223;27;20071;-67
2022/08/24 03:14:12;;;;;;;29.42;24.52;;;18.90;99.90;;;;;;5127766;27;20035;-67
2022/08/24 03:16:39;;;;;;;34.00;26.95;;;18.90;99.90;;;;;;5133982;27;20043;-68
2022/08/24 03:19:05;;;;;;;33.22;27.45;;;18.90;99.90;;;;;;5127583;27;20088;-66
2022/08/24 03:21:32;;;;;;;34.28;26.88;;;18.80;99.90;;;;;;5135779;27;20043;-67
2022/08/24 03:23:58;;;;;;;32.43;27.03;;;18.80;99.90;;;;;;5130595;27;20046;-66
2022/08/24 03:26:24;;;;;;;33.78;24.70;;;18.80;99.90;;;;;;5134298;27;20042;-66
2022/08/24 03:28:50;;;;;;;32.80;26.63;;;18.80;99.90;;;;;;5119741;27;20478;-67
2022/08/24 03:31:16;;;;;;;34.08;25.40;;;18.80;99.90;;;;;;5123889;27;20035;-67
2022/08/24 03:33:42;;;;;;;33.75;27.85;;;18.80;99.90;;;;;;5133066;27;20494;-67
2022/08/24 03:36:08;;;;;;;32.03;26.88;;;18.80;99.90;;;;;;5133387;27;20043;-68
2022/08/24 03:38:33;;;;;;;34.42;25.42;;;18.80;99.90;;;;;;5124841;27;20092;-67
2022/08/24 03:41:00;;;;;;;36.28;27.17;;;18.80;99.90;;;;;;5125946;27;20039;-69
2022/08/24 03:46:13;;;;;;;28.65;25.55;;;18.80;99.90;;;;;;5121765;27;20052;-67
2022/08/24 03:48:39;;;;;;;30.25;25.13;;;18.80;99.90;;;;;;5126589;27;20047;-67
2022/08/24 03:51:18;;;;;;;28.50;24.05;;;18.70;99.90;;;;;;5121828;27;20035;-66
2022/08/24 03:53:44;;;;;;;31.98;25.33;;;18.70;99.90;;;;;;5133368;27;20099;-66
2022/08/24 03:56:11;;;;;;;29.92;25.45;;;18.70;99.90;;;;;;5120795;27;20038;-66
2022/08/24 03:58:40;;;;;;;31.73;26.48;;;18.70;99.90;;;;;;5126383;27;20043;-68
2022/08/24 04:01:07;;;;;;;27.38;23.60;;;18.70;99.90;;;;;;5121630;27;20035;-66
2022/08/24 04:03:37;;;;;;;31.35;25.08;;;18.80;99.90;;;;;;5146994;27;20114;-66
2022/08/24 04:06:04;;;;;;;29.95;25.33;;;18.60;99.90;;;;;;5126237;27;20035;-66
2022/08/24 04:08:30;;;;;;;31.08;25.20;;;18.60;99.90;;;;;;5123439;27;20043;-66
2022/08/24 04:10:57;;;;;;;31.33;25.70;;;18.60;99.90;;;;;;5118784;27;20045;-67
2022/08/24 04:13:23;;;;;;;31.05;25.30;;;18.60;99.90;;;;;;5127637;27;20039;-67
2022/08/24 04:15:51;;;;;;;28.97;24.00;;;18.60;99.90;;;;;;5128680;27;20473;-66
2022/08/24 04:18:18;;;;;;;30.10;25.38;;;18.50;99.90;;;;;;5121787;27;20409;-66
2022/08/24 04:20:44;;;;;;;27.58;24.17;;;18.60;99.90;;;;;;5124236;27;20138;-66
2022/08/24 04:23:11;;;;;;;29.77;25.23;;;18.60;99.90;;;;;;5122174;27;20129;-66
2022/08/24 04:25:41;;;;;;;30.73;24.20;;;18.50;99.90;;;;;;5123209;27;20124;-66
2022/08/24 04:28:07;;;;;;;32.35;24.90;;;18.60;99.90;;;;;;5128095;27;20506;-67
2022/08/24 04:30:41;;;;;;;33.03;26.25;;;18.60;99.90;;;;;;5128315;27;20078;-66
2022/08/24 04:33:09;;;;;;;30.02;26.15;;;18.60;99.90;;;;;;5140351;27;20082;-66
2022/08/24 04:35:39;;;;;;;30.27;25.65;;;18.50;99.90;;;;;;5126263;27;20039;-66
2022/08/24 04:38:06;;;;;;;31.63;26.77;;;18.50;99.90;;;;;;5131064;27;20070;-67
2022/08/24 04:40:32;;;;;;;35.73;26.37;;;18.50;99.90;;;;;;5140515;27;20043;-66
2022/08/24 04:42:58;;;;;;;31.65;24.65;;;18.50;99.90;;;;;;5112520;27;20299;-67
2022/08/24 04:45:25;;;;;;;30.25;26.38;;;18.50;99.90;;;;;;5122295;27;20050;-66
2022/08/24 04:47:51;;;;;;;28.52;24.05;;;18.50;99.90;;;;;;5130131;27;20046;-66
2022/08/24 04:50:17;;;;;;;33.08;25.75;;;18.50;99.90;;;;;;5123722;27;20480;-68
2022/08/24 04:52:43;;;;;;;32.53;26.02;;;18.50;99.90;;;;;;5129521;27;20067;-67
2022/08/24 04:55:09;;;;;;;33.53;27.15;;;18.50;99.90;;;;;;5143523;27;20039;-66
2022/08/24 04:57:35;;;;;;;36.13;27.17;;;18.50;99.90;;;;;;5130848;27;20075;-66
2022/08/24 05:00:02;;;;;;;30.52;25.70;;;18.50;99.90;;;;;;5131728;27;20039;-67
2022/08/24 05:02:28;;;;;;;30.05;24.33;;;18.50;99.90;;;;;;5142485;27;20067;-66
2022/08/24 05:04:56;;;;;;;33.40;25.73;;;18.50;99.90;;;;;;5116378;27;20409;-68
2022/08/24 05:07:22;;;;;;;32.35;24.58;;;18.50;99.90;;;;;;5130058;27;20049;-66
2022/08/24 05:09:48;;;;;;;32.97;24.63;;;18.60;99.90;;;;;;5120995;27;20051;-68
2022/08/24 05:12:14;;;;;;;28.42;25.35;;;18.60;99.90;;;;;;5130519;27;20050;-66
2022/08/24 05:14:40;;;;;;;26.38;23.48;;;18.60;99.90;;;;;;5129601;27;20062;-66
2022/08/24 05:17:09;;;;;;;31.90;25.40;;;18.60;99.90;;;;;;5124946;27;20395;-66
2022/08/24 05:19:35;;;;;;;34.67;26.08;;;18.60;99.90;;;;;;5128715;27;20043;-66
2022/08/24 05:22:00;;;;;;;30.98;25.70;;;18.60;99.90;;;;;;5118676;27;20043;-67
2022/08/24 05:24:27;;;;;;;29.40;24.33;;;18.70;99.90;;;;;;5127600;27;20039;-66
2022/08/24 05:26:53;;;;;;;30.48;26.10;;;18.70;99.90;;;;;;5130269;27;20043;-67
2022/08/24 05:29:18;;;;;;;27.60;24.65;;;18.70;99.90;;;;;;5129322;27;20038;-67
2022/08/24 05:31:45;;;;;;;29.15;24.58;;;18.70;99.90;;;;;;5113897;27;20039;-66
2022/08/24 05:34:13;;;;;;;27.88;23.80;;;18.80;99.90;;;;;;5111090;28;20055;-66
2022/08/24 05:36:39;;;;;;;;;;;18.80;99.90;;;;;;5114923;27;20180;-67
2022/08/24 05:39:10;;;;;;;31.70;24.17;;;18.80;99.90;;;;;;5139228;27;20282;-66
2022/08/24 05:41:35;;;;;;;30.23;24.67;;;18.80;99.90;;;;;;5129882;27;20126;-66
2022/08/24 05:44:02;;;;;;;33.65;25.55;;;18.90;99.90;;;;;;5133056;27;20159;-68
2022/08/24 05:46:30;;;;;;;30.23;26.13;;;18.90;99.90;;;;;;5111706;27;20135;-66
2022/08/24 05:48:58;;;;;;;32.63;24.67;;;19.00;99.90;;;;;;5115447;27;20080;-67
2022/08/24 05:51:24;;;;;;;28.95;23.55;;;19.00;99.90;;;;;;5128179;28;20043;-66
2022/08/24 05:53:50;;;;;;;37.90;27.00;;;19.10;99.90;;;;;;5139453;27;20074;-67
2022/08/24 05:56:17;;;;;;;35.25;28.42;;;19.10;99.90;;;;;;5099347;28;20122;-66
2022/08/24 05:58:44;;;;;;;39.43;32.03;;;19.20;99.90;;;;;;5112089;28;20414;-67
2022/08/24 06:01:19;;;;;;;37.70;29.30;;;19.20;99.90;;;;;;5113917;28;20787;-66
2022/08/24 06:03:46;;;;;;;33.50;29.45;;;19.30;99.90;;;;;;5147485;27;20038;-67
2022/08/24 06:06:13;;;;;;;39.65;33.38;;;19.40;99.90;;;;;;5139836;27;20152;-66
2022/08/24 06:08:42;;;;;;;37.28;32.63;;;19.50;99.90;;;;;;5129879;27;20534;-66
2022/08/24 06:11:08;;;;;;;37.08;32.25;;;19.50;99.90;;;;;;5120143;27;20505;-67
2022/08/24 06:13:34;;;;;;;40.30;31.90;;;19.70;99.90;;;;;;5135456;27;20114;-67
2022/08/24 06:16:10;;;;;;;34.72;30.77;;;19.80;99.90;;;;;;5136982;27;20122;-67
2022/08/24 06:18:37;;;;;;;34.08;30.10;;;20.00;99.90;;;;;;5136796;27;20450;-66
2022/08/24 06:21:15;;;;;;;33.65;28.48;;;20.40;99.90;;;;;;5117081;27;20406;-67
2022/08/24 06:23:42;;;;;;;32.63;29.10;;;20.80;99.90;;;;;;5129458;27;20047;-66
2022/08/24 06:28:54;;;;;;;31.80;24.42;;;22.00;99.90;;;;;;5118520;27;20259;-67
2022/08/24 06:31:21;;;;;;;29.38;22.92;;;22.50;99.90;;;;;;5114824;27;20039;-68
2022/08/24 06:33:47;;;;;;;32.42;22.67;;;22.90;99.90;;;;;;5132490;27;20055;-66
2022/08/24 06:36:15;;;;;;;26.25;20.10;;;23.30;99.90;;;;;;5121955;27;20066;-67
2022/08/24 06:38:42;;;;;;;23.02;19.88;;;23.60;99.90;;;;;;5115120;27;20088;-67
2022/08/24 06:41:09;;;;;;;23.65;18.85;;;24.40;99.90;;;;;;5131650;27;20075;-67
2022/08/24 06:43:36;;;;;;;25.45;18.00;;;24.10;99.90;;;;;;5102489;28;20358;-66
2022/08/24 06:46:02;;;;;;;23.30;16.27;;;24.00;99.90;;;;;;5115980;28;20044;-66
2022/08/24 06:48:29;;;;;;;21.42;15.98;;;23.90;99.90;;;;;;5128558;27;20049;-66
2022/08/24 06:50:57;;;;;;;17.73;14.55;;;23.80;99.90;;;;;;5133718;27;20074;-66
2022/08/24 06:53:24;;;;;;;23.10;15.07;;;24.00;99.90;;;;;;5128400;27;20070;-68
2022/08/24 06:55:56;;;;;;;22.60;14.20;;;24.30;99.90;;;;;;5131028;27;20464;-67
2022/08/24 06:58:27;;;;;;;25.23;14.02;;;24.60;99.90;;;;;;5136036;27;20077;-65
2022/08/24 07:00:55;;;;;;;25.27;12.75;;;24.80;99.90;;;;;;5127038;27;20104;-67
2022/08/24 07:03:21;;;;;;;;;;;25.00;99.90;;;;;;5113416;27;20567;-67
2022/08/24 07:05:56;;;;;;;16.95;10.48;;;25.10;99.90;;;;;;5126666;27;20449;-65
2022/08/24 07:08:22;;;;;;;13.30;9.90;;;25.10;99.90;;;;;;5114027;27;20101;-67
2022/08/24 07:10:48;;;;;;;14.10;9.32;;;25.00;99.90;;;;;;5114262;27;20036;-67
2022/08/24 07:13:14;;;;;;;15.40;9.85;;;24.80;99.90;;;;;;5122183;27;20122;-66
2022/08/24 07:15:41;;;;;;;12.52;8.00;;;24.70;99.90;;;;;;5143152;27;20070;-65
2022/08/24 07:18:10;;;;;;;13.02;7.65;;;24.70;99.90;;;;;;5121681;27;20031;-67
2022/08/24 07:20:36;;;;;;;14.38;7.78;;;24.60;99.90;;;;;;5117781;27;20086;-66
2022/08/24 07:23:06;;;;;;;18.03;7.97;;;24.50;99.90;;;;;;5132983;27;20554;-66
2022/08/24 07:25:33;;;;;;;15.10;7.50;;;24.50;99.90;;;;;;5129508;27;20039;-67
2022/08/24 07:27:59;;;;;;;16.00;7.05;;;24.60;99.90;;;;;;5119745;27;20050;-66
2022/08/24 07:30:26;;;;;;;10.57;6.70;;;24.60;99.90;;;;;;5152329;27;20039;-65
2022/08/24 07:32:52;;;;;;;12.60;6.40;;;24.70;99.90;;;;;;5142527;27;20115;-66
2022/08/24 07:35:19;;;;;;;11.30;6.07;;;24.70;99.90;;;;;;5123177;27;20154;-67
2022/08/24 07:37:44;;;;;;;10.13;6.40;;;24.60;99.90;;;;;;5130482;27;20074;-67
2022/08/24 07:40:11;;;;;;;11.00;5.50;;;24.50;99.90;;;;;;5145174;27;20515;-66
2022/08/24 07:42:38;;;;;;;8.80;5.65;;;24.50;99.90;;;;;;5115533;27;20040;-66
2022/08/24 07:45:07;;;;;;;;;;;24.50;99.90;;;;;;5112763;27;20110;-66
2022/08/24 07:47:33;;;;;;;10.15;6.28;;;24.60;99.90;;;;;;5127406;27;20440;-68
2022/08/24 07:49:59;;;;;;;8.82;5.55;;;24.70;99.90;;;;;;5111907;27;20051;-67
2022/08/24 07:52:25;;;;;;;7.82;4.95;;;24.80;99.90;;;;;;5112525;28;20055;-66
2022/08/24 07:54:51;;;;;;;8.77;5.53;;;25.00;99.90;;;;;;5136290;27;20046;-68
2022/08/24 07:57:16;;;;;;;7.28;5.13;;;25.10;99.90;;;;;;5121862;27;20031;-66
2022/08/24 07:59:42;;;;;;;9.52;4.00;;;25.20;99.90;;;;;;5115790;27;20047;-68
2022/08/24 08:02:10;;;;;;;7.43;4.63;;;25.40;99.90;;;;;;5126242;27;20067;-68
2022/08/24 08:04:36;;;;;;;;;;;25.50;99.90;;;;;;5142220;27;20035;-67
2022/08/24 08:07:03;;;;;;;11.13;4.88;;;25.60;99.90;;;;;;5138928;27;20373;-67
2022/08/24 08:09:29;;;;;;;16.67;5.35;;;25.70;99.90;;;;;;5136000;27;20375;-66
2022/08/24 08:11:54;;;;;;;11.70;5.60;;;25.80;99.90;;;;;;5132697;27;20054;-67
2022/08/24 08:14:20;;;;;;;7.90;4.55;;;25.90;99.90;;;;;;5113570;28;20039;-66
2022/08/24 08:16:46;;;;;;;7.68;4.43;;;26.00;99.90;;;;;;5122020;27;20371;-67
2022/08/24 08:19:11;;;;;;;8.98;5.30;;;26.20;99.90;;;;;;5141743;27;20045;-66
2022/08/24 08:24:27;;;;;;;10.23;5.05;;;26.30;99.90;;;;;;5111754;28;20047;-67
2022/08/24 08:26:53;;;;;;;12.38;4.28;;;26.50;99.90;;;;;;5115891;27;20043;-68
2022/08/24 08:29:19;;;;;;;8.93;5.30;;;26.60;99.90;;;;;;5111877;28;20477;-66
2022/08/24 08:31:45;;;;;;;8.57;4.88;;;26.70;99.90;;;;;;5112857;27;20035;-66
2022/08/24 08:34:11;;;;;;;9.57;4.13;;;26.70;99.90;;;;;;5125299;27;20035;-67
2022/08/24 08:36:39;;;;;;;9.05;4.25;;;26.80;99.90;;;;;;5131181;27;20043;-67
2022/08/24 08:39:06;;;;;;;7.63;4.55;;;26.90;99.90;;;;;;5120615;27;20061;-66
2022/08/24 08:41:39;;;;;;;11.55;4.40;;;27.00;99.90;;;;;;5124641;27;20058;-66
2022/08/24 08:44:20;;;;;;;12.15;4.05;;;27.20;99.90;;;;;;5115267;27;20118;-67
2022/08/24 08:47:23;;;;;;;8.38;4.43;;;27.20;99.90;;;;;;5126427;27;20082;-66
2022/08/24 08:50:17;;;;;;;10.80;4.40;;;27.40;99.40;;;;;;5118194;27;20035;-66
2022/08/24 08:53:01;;;;;;;7.93;4.20;;;27.50;99.60;;;;;;5124246;27;20122;-66
2022/08/24 08:55:51;;;;;;;9.88;4.40;;;27.60;99.30;;;;;;5122521;27;20035;-67
2022/08/24 08:58:47;;;;;;;6.93;3.72;;;27.80;98.70;;;;;;5131060;27;20143;-67
2022/08/24 09:01:25;;;;;;;5.10;3.58;;;27.90;98.90;;;;;;5123356;27;20079;-67
2022/08/24 09:04:00;;;;;;;9.70;3.58;;;28.00;98.60;;;;;;5124881;27;20498;-67
2022/08/24 09:06:34;;;;;;;6.85;3.65;;;28.10;98.60;;;;;;5116325;27;20048;-67
2022/08/24 09:09:26;;;;;;;6.53;3.20;;;28.30;98.80;;;;;;5122287;27;20545;-67
2022/08/24 09:12:03;;;;;;;18.20;4.32;;;28.40;97.30;;;;;;5112232;27;20062;-67
2022/08/24 09:14:45;;;;;;;7.00;3.90;;;28.50;97.50;;;;;;5131717;27;20054;-68
2022/08/24 09:17:32;;;;;;;10.57;3.97;;;28.60;97.70;;;;;;5122043;27;21080;-67
2022/08/24 09:20:26;;;;;;;10.50;3.70;;;28.70;97.70;;;;;;5150346;27;20042;-67
2022/08/24 09:23:18;;;;;;;6.65;3.17;;;28.90;97.30;;;;;;5116852;27;20035;-67
2022/08/24 09:25:54;;;;;;;5.65;3.40;;;29.00;97.20;;;;;;5096135;28;20050;-68
2022/08/24 09:28:40;;;;;;;6.88;3.15;;;29.10;96.40;;;;;;5121682;27;20122;-67
2022/08/24 09:31:20;;;;;;;5.63;3.15;;;29.10;96.10;;;;;;5119686;27;20051;-67
2022/08/24 09:34:20;;;;;;;9.18;3.20;;;29.20;95.90;;;;;;5119080;27;20447;-67
2022/08/24 09:36:51;;;;;;;8.05;4.10;;;29.30;95.20;;;;;;5129648;27;20039;-65
2022/08/24 09:39:26;;;;;;;6.82;3.60;;;29.30;94.80;;;;;;5122066;27;20050;-67
2022/08/24 09:42:13;;;;;;;4.80;2.72;;;29.30;94.90;;;;;;5129091;27;20047;-66
2022/08/24 09:45:06;;;;;;;5.33;3.20;;;29.40;95.00;;;;;;5118275;27;20053;-67
2022/08/24 09:48:04;;;;;;;5.43;3.28;;;29.40;94.60;;;;;;5122015;27;20116;-66
2022/08/24 09:50:45;;;;;;;13.30;4.03;;;29.60;94.60;;;;;;5129537;28;20075;-66
2022/08/24 09:53:29;;;;;;;8.38;3.53;;;29.70;94.00;;;;;;5125896;27;20046;-66
2022/08/24 09:56:10;;;;;;;4.85;2.72;;;29.70;93.00;;;;;;5119575;28;20047;-66
2022/08/24 09:58:59;;;;;;;6.18;3.70;;;29.70;93.20;;;;;;5118730;28;20040;-66
2022/08/24 10:01:37;;;;;;;6.25;3.75;;;29.80;92.60;;;;;;5114108;28;20502;-65
2022/08/24 10:04:24;;;;;;;5.82;3.13;;;29.90;92.80;;;;;;5131111;28;20074;-67
2022/08/24 10:07:47;;;;;;;8.70;3.70;;;30.00;93.00;;;;;;5120685;28;20062;-67
2022/08/24 10:10:47;;;;;;;7.93;2.70;;;30.30;92.60;;;;;;5008376;28;20506;-67
2022/08/24 10:13:19;;;;;;;5.88;3.20;;;30.40;92.40;;;;;;5008426;28;20083;-66
2022/08/24 10:16:11;;;;;;;7.47;2.60;;;30.50;91.90;;;;;;5110507;27;20050;-67
2022/08/24 10:18:43;;;;;;;8.07;2.95;;;30.60;91.00;;;;;;5118875;28;20075;-67
2022/08/24 10:21:24;;;;;;;5.57;2.63;;;30.80;91.50;;;;;;5126964;27;20042;-66
2022/08/24 10:24:05;;;;;;;4.00;2.67;;;30.90;91.20;;;;;;5126026;28;20047;-67
2022/08/24 10:27:00;;;;;;;6.82;3.10;;;31.20;91.00;;;;;;5116582;28;20050;-66
2022/08/24 10:29:32;;;;;;;11.52;2.80;;;31.40;90.40;;;;;;5106376;28;20094;-67
2022/08/24 10:32:04;;;;;;;7.85;3.13;;;31.60;88.30;;;;;;5119802;28;20043;-68
2022/08/24 10:34:53;;;;;;;7.05;3.20;;;31.60;89.00;;;;;;5121203;27;20038;-65
2022/08/24 10:37:33;;;;;;;5.45;2.45;;;31.60;88.60;;;;;;5123448;27;20451;-67
2022/08/24 10:40:30;;;;;;;4.45;2.63;;;31.80;88.50;;;;;;5124455;27;20042;-67
2022/08/24 10:43:33;;;;;;;8.60;2.63;;;32.20;86.20;;;;;;5109568;27;20039;-66
2022/08/24 10:46:25;;;;;;;5.43;2.30;;;32.30;87.50;;;;;;5116321;27;20104;-65
2022/08/24 10:49:17;;;;;;;5.22;2.33;;;32.70;85.90;;;;;;5122155;27;20440;-67
2022/08/24 10:51:46;;;;;;;19.08;3.97;;;32.90;84.40;;;;;;5118108;27;20545;-66
2022/08/24 10:54:12;;;;;;;8.48;3.20;;;33.30;82.90;;;;;;5131365;27;20079;-67
2022/08/24 10:56:59;;;;;;;6.60;2.65;;;33.30;83.20;;;;;;5126850;27;20039;-67
2022/08/24 11:00:08;;;;;;;9.20;2.80;;;33.40;83.20;;;;;;5108461;27;20119;-66
2022/08/24 11:02:35;;;;;;;;;;;33.70;80.30;;;;;;5145479;27;20043;-67
2022/08/24 11:05:08;;;;;;;5.95;2.10;;;33.90;79.60;;;;;;5124225;27;19919;-66
2022/08/24 11:07:36;;;;;;;4.72;2.45;;;33.90;77.80;;;;;;5123862;27;20051;-66
2022/08/24 11:10:22;;;;;;;5.40;3.15;;;33.80;79.00;;;;;;5126942;27;20089;-66
2022/08/24 11:12:48;;;;;;;6.37;2.27;;;33.70;78.30;;;;;;5131416;27;20061;-68
2022/08/24 11:15:17;;;;;;;7.27;2.57;;;33.80;79.00;;;;;;5127742;27;20281;-67
2022/08/24 11:17:59;;;;;;;4.65;2.22;;;34.00;77.60;;;;;;5131932;27;20118;-66
2022/08/24 11:20:33;;;;;;;4.78;2.22;;;34.30;76.00;;;;;;5122945;27;20122;-67
2022/08/24 11:23:19;;;;;;;5.00;2.47;;;34.10;76.10;;;;;;5129066;27;20054;-68
2022/08/24 11:26:12;;;;;;;2.72;1.77;;;34.30;74.90;;;;;;5120577;27;20035;-67
2022/08/24 11:28:52;;;;;;;4.43;2.20;;;34.10;74.60;;;;;;5102367;27;20131;-67
2022/08/24 11:31:32;;;;;;;6.75;2.03;;;33.80;75.60;;;;;;5122601;27;20575;-67
2022/08/24 11:34:04;;;;;;;6.50;2.40;;;33.60;74.20;;;;;;5127832;27;20046;-67
2022/08/24 11:36:34;;;;;;;6.15;2.30;;;33.20;75.40;;;;;;5108639;27;20126;-67
2022/08/24 11:39:21;;;;;;;3.88;2.13;;;32.90;75.80;;;;;;5134709;27;20031;-66
2022/08/24 11:41:50;;;;;;;7.25;2.10;;;33.00;75.70;;;;;;5120891;27;20043;-68
2022/08/24 11:44:37;;;;;;;3.60;1.85;;;33.10;76.00;;;;;;5128119;27;20042;-67
2022/08/24 11:47:38;;;;;;;3.55;1.83;;;33.50;75.80;;;;;;5109362;27;20052;-67
2022/08/24 11:50:32;;;;;;;4.32;1.90;;;33.80;75.10;;;;;;5119845;27;20100;-66
2022/08/24 11:53:07;;;;;;;3.35;1.70;;;33.70;73.00;;;;;;5127850;27;20097;-67
2022/08/24 11:56:03;;;;;;;5.35;1.80;;;33.30;73.50;;;;;;5124315;27;20146;-66
2022/08/24 11:58:58;;;;;;;2.85;1.73;;;33.00;73.30;;;;;;5129017;27;20031;-67
2022/08/24 12:01:42;;;;;;;5.38;1.85;;;32.50;74.90;;;;;;5125507;27;20043;-67
2022/08/24 12:04:24;;;;;;;4.63;2.10;;;32.30;75.10;;;;;;5098142;27;20043;-66
2022/08/24 12:07:14;;;;;;;9.82;2.50;;;31.90;75.50;;;;;;5123193;27;20371;-67
2022/08/24 12:10:13;;;;;;;3.90;2.03;;;31.80;75.40;;;;;;5118154;27;20058;-66
2022/08/24 12:13:15;;;;;;;6.72;2.15;;;31.40;76.10;;;;;;5124432;27;20414;-66
2022/08/24 12:16:02;;;;;;;3.47;1.80;;;31.40;76.70;;;;;;5077198;27;20058;-65
2022/08/24 12:19:13;;;;;;;6.18;2.00;;;31.30;76.20;;;;;;5117165;27;20047;-67
2022/08/24 12:21:44;;;;;;;3.70;1.83;;;31.20;76.10;;;;;;5115705;27;20405;-67
2022/08/24 12:24:25;;;;;;;4.80;2.17;;;30.90;78.10;;;;;;5110737;28;20054;-67
2022/08/24 12:26:59;;;;;;;7.20;1.98;;;30.90;78.40;;;;;;5118629;27;20440;-67
2022/08/24 12:29:34;;;;;;;3.50;1.85;;;31.20;79.50;;;;;;5118777;27;20040;-66
2022/08/24 12:32:24;;;;;;;3.95;2.10;;;31.40;78.50;;;;;;5115811;27;20036;-67
2022/08/24 12:35:04;;;;;;;7.10;1.83;;;31.70;77.20;;;;;;5121492;27;20450;-67
2022/08/24 12:37:33;;;;;;;4.60;2.00;;;32.00;77.80;;;;;;5115092;27;20039;-67
2022/08/24 12:39:59;;;;;;;2.63;1.75;;;32.50;76.80;;;;;;5124609;27;20049;-67
2022/08/24 12:42:46;;;;;;;2.87;1.80;;;32.60;73.50;;;;;;5116380;27;20086;-68
2022/08/24 12:45:15;;;;;;;22.48;3.05;;;32.40;75.00;;;;;;5118551;27;20419;-66
2022/08/24 12:48:05;;;;;;;2.17;1.70;;;32.10;76.20;;;;;;5125365;27;20517;-67
2022/08/24 12:50:47;;;;;;;2.78;1.70;;;31.90;76.30;;;;;;5106769;28;20075;-67
2022/08/24 12:53:40;;;;;;;2.53;1.58;;;32.10;78.10;;;;;;5122638;27;20441;-67
2022/08/24 12:56:14;;;;;;;2.65;1.48;;;32.30;77.00;;;;;;5123418;27;20114;-66
2022/08/24 12:59:01;;;;;;;4.00;1.60;;;32.30;74.90;;;;;;5119279;27;20043;-67
2022/08/24 13:01:34;;;;;;;4.55;1.58;;;32.20;75.10;;;;;;5111614;27;20039;-67
2022/08/24 13:04:34;;;;;;;5.57;1.92;;;32.00;74.80;;;;;;5111083;28;20036;-66
2022/08/24 13:07:09;;;;;;;5.68;1.60;;;31.80;74.20;;;;;;5111527;27;20448;-67
2022/08/24 13:09:42;;;;;;;2.58;1.70;;;31.50;75.60;;;;;;5111144;28;20035;-67
2022/08/24 13:12:29;;;;;;;3.92;1.73;;;31.50;77.00;;;;;;5093959;27;20490;-67